createdAt,value
2018-09-15T00:00:59.310Z,96.68
2018-09-15T00:03:28.698Z,96.46
2018-09-15T00:05:58.218Z,95.79
2018-09-15T00:08:27.916Z,96.13
2018-09-15T00:10:57.031Z,95.54
2018-09-15T00:13:26.378Z,95.10
2018-09-15T00:15:55.584Z,94.68
2018-09-15T00:18:24.732Z,94.27
2018-09-15T00:20:53.931Z,94.57
2018-09-15T00:23:23.087Z,94.35
2018-09-15T00:25:52.321Z,93.27
2018-09-15T00:28:21.623Z,93.28
2018-09-15T00:30:50.944Z,93.24
2018-09-15T00:33:19.729Z,92.38
2018-09-15T00:35:48.927Z,94.07
2018-09-15T00:38:19.621Z,95.38
2018-09-15T00:40:48.758Z,96.04
2018-09-15T00:43:17.883Z,95.82
2018-09-15T00:45:48.154Z,96.51
2018-09-15T00:48:17.260Z,96.98
2018-09-15T00:50:46.362Z,95.32
2018-09-15T00:53:15.498Z,92.98
2018-09-15T00:55:44.594Z,92.04
2018-09-15T00:58:13.723Z,91.22
2018-09-15T01:00:43.446Z,91.25
2018-09-15T01:03:12.562Z,91.15
2018-09-15T01:05:41.657Z,91.67
2018-09-15T01:08:10.826Z,90.47
2018-09-15T01:10:39.938Z,90.73
2018-09-15T01:13:09.117Z,90.24
2018-09-15T01:15:38.294Z,90.71
2018-09-15T01:18:07.466Z,90.86
2018-09-15T01:20:38.286Z,90.37
2018-09-15T01:23:07.526Z,90.79
2018-09-15T01:25:36.748Z,91.39
2018-09-15T01:28:06.034Z,90.93
2018-09-15T01:30:34.815Z,89.54
2018-09-15T01:33:03.967Z,89.16
2018-09-15T01:35:33.122Z,86.57
2018-09-15T01:38:02.234Z,86.72
2018-09-15T01:40:31.406Z,86.98
2018-09-15T01:43:00.662Z,86.67
2018-09-15T01:45:29.818Z,87.07
2018-09-15T01:47:58.933Z,86.63
2018-09-15T01:50:28.043Z,86.58
2018-09-15T01:52:57.228Z,86.31
2018-09-15T01:55:26.378Z,86.18
2018-09-15T01:57:56.093Z,86.16
2018-09-15T02:00:25.390Z,86.43
2018-09-15T02:02:54.563Z,85.79
2018-09-15T02:05:23.706Z,86.30
2018-09-15T02:07:52.821Z,86.91
2018-09-15T02:10:21.938Z,86.03
2018-09-15T02:12:51.046Z,84.40
2018-09-15T02:15:20.602Z,83.99
2018-09-15T02:17:50.324Z,84.98
2018-09-15T02:20:19.454Z,84.16
2018-09-15T02:22:48.675Z,82.93
2018-09-15T02:25:17.821Z,83.28
2018-09-15T02:27:46.962Z,84.18
2018-09-15T02:30:17.327Z,83.85
2018-09-15T02:32:46.185Z,83.48
2018-09-15T02:35:15.754Z,84.03
2018-09-15T02:37:44.913Z,84.21
2018-09-15T02:40:14.062Z,84.59
2018-09-15T02:42:43.898Z,84.68
2018-09-15T02:45:13.025Z,85.80
2018-09-15T02:47:42.490Z,87.12
2018-09-15T02:50:11.999Z,87.51
2018-09-15T02:52:41.122Z,87.06
2018-09-15T02:55:10.397Z,86.98
2018-09-15T02:57:39.586Z,86.83
2018-09-15T03:00:09.718Z,87.72
2018-09-15T03:02:38.889Z,88.38
2018-09-15T03:05:08.003Z,88.71
2018-09-15T03:07:37.320Z,89.32
2018-09-15T03:10:06.482Z,89.10
2018-09-15T03:12:35.585Z,88.69
2018-09-15T03:15:05.018Z,89.17
2018-09-15T03:17:34.167Z,89.03
2018-09-15T03:20:03.381Z,89.49
2018-09-15T03:22:32.467Z,88.80
2018-09-15T03:25:01.627Z,88.26
2018-09-15T03:27:30.774Z,87.96
2018-09-15T03:30:00.214Z,87.68
2018-09-15T03:32:29.425Z,87.08
2018-09-15T03:34:58.950Z,86.86
2018-09-15T03:37:28.222Z,86.96
2018-09-15T03:39:57.019Z,86.38
2018-09-15T03:42:26.174Z,86.82
2018-09-15T03:44:55.337Z,87.10
2018-09-15T03:47:24.506Z,87.65
2018-09-15T03:49:54.438Z,87.09
2018-09-15T03:52:23.608Z,87.46
2018-09-15T03:54:53.418Z,87.34
2018-09-15T03:57:22.539Z,87.68
2018-09-15T03:59:51.653Z,86.60
2018-09-15T04:02:20.750Z,87.31
2018-09-15T04:04:50.597Z,87.76
2018-09-15T04:07:19.733Z,87.98
2018-09-15T04:09:48.865Z,88.26
2018-09-15T04:12:17.986Z,87.91
2018-09-15T04:14:47.509Z,88.41
2018-09-15T04:17:16.645Z,88.38
2018-09-15T04:19:46.630Z,88.48
2018-09-15T04:22:15.793Z,87.81
2018-09-15T04:24:44.990Z,87.58
2018-09-15T04:27:14.134Z,87.49
2018-09-15T04:29:43.265Z,87.36
2018-09-15T04:32:12.402Z,86.88
2018-09-15T04:34:41.980Z,86.29
2018-09-15T04:37:10.821Z,85.97
2018-09-15T04:39:39.945Z,85.72
2018-09-15T04:42:09.111Z,85.39
2018-09-15T04:44:38.358Z,85.10
2018-09-15T04:47:07.481Z,85.86
2018-09-15T04:49:36.626Z,85.22
2018-09-15T04:52:05.758Z,86.44
2018-09-15T04:54:34.947Z,86.50
2018-09-15T04:57:04.122Z,86.49
2018-09-15T04:59:33.250Z,85.72
2018-09-15T05:02:02.387Z,84.71
2018-09-15T05:04:32.222Z,84.56
2018-09-15T05:07:01.337Z,83.57
2018-09-15T05:09:30.490Z,83.21
2018-09-15T05:11:59.637Z,83.15
2018-09-15T05:14:29.248Z,82.56
2018-09-15T05:16:58.389Z,83.51
2018-09-15T05:19:27.501Z,83.62
2018-09-15T05:21:56.928Z,83.33
2018-09-15T05:24:26.045Z,82.38
2018-09-15T05:26:55.266Z,81.05
2018-09-15T05:29:24.309Z,81.97
2018-09-15T05:31:53.438Z,80.82
2018-09-15T05:34:22.902Z,80.92
2018-09-15T05:36:52.042Z,80.68
2018-09-15T05:39:21.186Z,80.30
2018-09-15T05:41:50.836Z,79.42
2018-09-15T05:44:20.008Z,80.33
2018-09-15T05:46:49.153Z,79.67
2018-09-15T05:49:18.283Z,79.38
2018-09-15T05:51:47.457Z,79.01
2018-09-15T05:54:16.638Z,79.17
2018-09-15T05:56:45.801Z,78.70
2018-09-15T05:59:14.937Z,76.75
2018-09-15T06:01:44.167Z,75.14
2018-09-15T06:04:13.242Z,75.90
2018-09-15T06:06:42.409Z,75.58
2018-09-15T06:09:12.547Z,74.58
2018-09-15T06:11:42.286Z,73.95
2018-09-15T06:14:11.455Z,72.69
2018-09-15T06:16:40.615Z,71.86
2018-09-15T06:19:10.022Z,69.95
2018-09-15T06:21:39.121Z,64.21
2018-09-15T06:24:08.338Z,60.21
2018-09-15T06:26:38.285Z,60.17
2018-09-15T06:29:08.166Z,62.37
2018-09-15T06:31:37.478Z,62.56
2018-09-15T06:34:06.986Z,61.70
2018-09-15T06:36:36.113Z,59.21
2018-09-15T06:39:08.673Z,57.16
2018-09-15T06:41:38.266Z,58.45
2018-09-15T06:44:07.515Z,57.34
2018-09-15T06:46:36.623Z,54.28
2018-09-15T06:49:05.754Z,52.88
2018-09-15T06:51:34.863Z,52.66
2018-09-15T06:54:04.702Z,54.94
2018-09-15T06:56:33.845Z,53.56
2018-09-15T06:59:02.974Z,52.34
2018-09-15T07:01:32.094Z,52.97
2018-09-15T07:04:02.490Z,51.55
2018-09-15T07:06:31.617Z,51.32
2018-09-15T07:09:00.760Z,50.02
2018-09-15T07:11:29.917Z,47.60
2018-09-15T07:13:59.029Z,50.18
2018-09-15T07:16:28.165Z,50.05
2018-09-15T07:18:57.343Z,49.23
2018-09-15T07:21:27.222Z,51.81
2018-09-15T07:23:56.444Z,52.00
2018-09-15T07:26:25.642Z,51.62
2018-09-15T07:28:54.770Z,49.83
2018-09-15T07:31:23.899Z,50.24
2018-09-15T07:33:53.085Z,48.38
2018-09-15T07:36:22.965Z,45.43
2018-09-15T07:38:52.118Z,48.82
2018-09-15T07:41:21.276Z,47.21
2018-09-15T07:43:50.486Z,46.74
2018-09-15T07:46:19.618Z,43.90
2018-09-15T07:48:48.798Z,45.79
2018-09-15T07:51:18.762Z,42.45
2018-09-15T07:53:47.974Z,43.16
2018-09-15T07:56:17.125Z,41.36
2018-09-15T07:58:46.298Z,41.25
2018-09-15T08:01:15.506Z,38.83
2018-09-15T08:03:44.313Z,36.41
2018-09-15T08:06:13.433Z,34.85
2018-09-15T08:08:42.594Z,34.62
2018-09-15T08:11:11.793Z,33.92
2018-09-15T08:13:40.879Z,35.55
2018-09-15T08:16:10.662Z,33.07
2018-09-15T08:18:39.781Z,31.49
2018-09-15T08:21:08.922Z,29.88
2018-09-15T08:23:38.720Z,30.39
2018-09-15T08:26:07.954Z,32.20
2018-09-15T08:28:37.778Z,31.11
2018-09-15T08:31:07.413Z,31.22
2018-09-15T08:33:36.573Z,30.50
2018-09-15T08:36:05.739Z,27.28
2018-09-15T08:38:34.878Z,25.23
2018-09-15T08:41:04.001Z,31.12
2018-09-15T08:43:33.942Z,26.91
2018-09-15T08:46:03.769Z,28.96
2018-09-15T08:48:33.868Z,27.34
2018-09-15T08:51:03.201Z,29.16
2018-09-15T08:53:32.034Z,28.03
2018-09-15T08:56:01.158Z,25.37
2018-09-15T08:58:30.981Z,26.04
2018-09-15T09:01:00.126Z,26.20
2018-09-15T09:03:29.233Z,27.01
2018-09-15T09:05:59.954Z,26.78
2018-09-15T09:08:29.094Z,30.90
2018-09-15T09:10:58.905Z,30.97
2018-09-15T09:13:28.084Z,31.91
2018-09-15T09:15:57.445Z,32.99
2018-09-15T09:18:26.652Z,34.30
2018-09-15T09:20:55.842Z,38.02
2018-09-15T09:23:25.370Z,38.86
2018-09-15T09:25:55.418Z,39.82
2018-09-15T09:28:24.478Z,38.09
2018-09-15T09:30:53.638Z,39.77
2018-09-15T09:33:22.746Z,41.10
2018-09-15T09:35:52.590Z,41.37
2018-09-15T09:38:21.936Z,40.28
2018-09-15T09:40:51.290Z,42.40
2018-09-15T09:43:20.844Z,42.58
2018-09-15T09:45:50.666Z,40.50
2018-09-15T09:48:20.031Z,41.01
2018-09-15T09:50:49.592Z,40.54
2018-09-15T09:53:18.730Z,41.18
2018-09-15T09:55:47.929Z,38.92
2018-09-15T09:58:17.096Z,39.26
2018-09-15T10:00:51.562Z,40.76
2018-09-15T10:03:20.792Z,42.82
2018-09-15T10:05:50.886Z,43.10
2018-09-15T10:08:20.726Z,43.67
2018-09-15T10:10:50.025Z,42.09
2018-09-15T10:13:19.750Z,42.22
2018-09-15T10:15:49.503Z,39.62
2018-09-15T10:18:18.640Z,40.23
2018-09-15T10:20:47.875Z,41.43
2018-09-15T10:23:17.014Z,42.57
2018-09-15T10:25:46.154Z,41.37
2018-09-15T10:28:16.090Z,43.65
2018-09-15T10:30:45.945Z,42.61
2018-09-15T10:33:15.083Z,42.73
2018-09-15T10:35:44.244Z,40.36
2018-09-15T10:38:13.382Z,40.22
2018-09-15T10:40:42.553Z,40.31
2018-09-15T10:43:11.686Z,38.87
2018-09-15T10:45:40.814Z,41.77
2018-09-15T10:48:09.965Z,36.23
2018-09-15T10:50:39.090Z,34.70
2018-09-15T10:53:08.320Z,35.79
2018-09-15T10:55:37.934Z,35.95
2018-09-15T10:58:07.067Z,36.83
2018-09-15T11:00:36.299Z,37.40
2018-09-15T11:03:05.821Z,36.68
2018-09-15T11:05:34.937Z,37.38
2018-09-15T11:08:05.110Z,38.09
2018-09-15T11:10:35.928Z,35.98
2018-09-15T11:13:06.006Z,34.45
2018-09-15T11:15:41.955Z,35.32
2018-09-15T11:18:11.786Z,34.94
2018-09-15T11:20:41.031Z,34.61
2018-09-15T11:23:10.299Z,32.23
2018-09-15T11:25:40.133Z,28.88
2018-09-15T11:28:09.477Z,23.90
2018-09-15T11:30:38.632Z,26.84
2018-09-15T11:33:08.530Z,31.07
2018-09-15T11:35:37.706Z,33.34
2018-09-15T11:38:07.373Z,35.31
2018-09-15T11:40:37.262Z,30.33
2018-09-15T11:43:08.301Z,31.46
2018-09-15T11:45:37.921Z,34.63
2018-09-15T11:48:07.851Z,36.16
2018-09-15T11:50:36.963Z,38.22
2018-09-15T11:53:06.629Z,39.02
2018-09-15T11:55:37.081Z,40.47
2018-09-15T11:58:07.218Z,34.88
2018-09-15T12:00:39.749Z,30.52
2018-09-15T12:03:09.806Z,30.47
2018-09-15T12:05:39.822Z,35.56
2018-09-15T12:08:09.088Z,34.00
2018-09-15T12:10:38.825Z,30.71
2018-09-15T12:13:07.708Z,28.85
2018-09-15T12:15:36.964Z,27.07
2018-09-15T12:18:06.098Z,25.69
2018-09-15T12:20:35.231Z,23.71
2018-09-15T12:23:04.778Z,22.96
2018-09-15T12:25:35.692Z,25.40
2018-09-15T12:28:06.941Z,27.71
2018-09-15T12:30:36.694Z,24.22
2018-09-15T12:33:05.923Z,20.33
2018-09-15T12:35:35.093Z,18.18
2018-09-15T12:38:04.570Z,20.70
2018-09-15T12:40:33.693Z,25.31
2018-09-15T12:43:02.875Z,27.54
2018-09-15T12:45:32.071Z,30.64
2018-09-15T12:48:01.198Z,35.08
2018-09-15T12:50:30.678Z,35.99
2018-09-15T12:52:59.817Z,37.37
2018-09-15T12:55:28.926Z,38.39
2018-09-15T12:57:58.302Z,38.98
2018-09-15T13:00:27.454Z,38.84
2018-09-15T13:02:56.610Z,38.07
2018-09-15T13:05:25.725Z,37.71
2018-09-15T13:07:55.377Z,37.07
2018-09-15T13:10:24.950Z,35.06
2018-09-15T13:12:54.809Z,29.45
2018-09-15T13:15:25.795Z,27.37
2018-09-15T13:17:55.543Z,29.42
2018-09-15T13:20:24.236Z,24.86
2018-09-15T13:22:53.429Z,30.33
2018-09-15T13:25:22.609Z,28.58
2018-09-15T13:27:51.889Z,30.66
2018-09-15T13:30:21.096Z,27.04
2018-09-15T13:32:50.633Z,24.61
2018-09-15T13:35:20.165Z,21.05
2018-09-15T13:37:49.952Z,26.32
2018-09-15T13:40:19.267Z,29.25
2018-09-15T13:42:48.429Z,27.82
2018-09-15T13:45:17.558Z,24.71
2018-09-15T13:47:48.093Z,24.88
2018-09-15T13:50:17.194Z,25.41
2018-09-15T13:52:46.415Z,24.88
2018-09-15T13:55:16.195Z,26.40
2018-09-15T13:57:45.965Z,29.48
2018-09-15T14:00:15.105Z,26.89
2018-09-15T14:02:44.833Z,24.19
2018-09-15T14:05:14.960Z,25.13
2018-09-15T14:07:44.231Z,23.84
2018-09-15T14:10:19.011Z,27.45
2018-09-15T14:12:43.057Z,24.95
2018-09-15T14:15:12.489Z,24.67
2018-09-15T14:17:42.114Z,27.70
2018-09-15T14:20:11.482Z,32.37
2018-09-15T14:22:40.533Z,34.96
2018-09-15T14:25:10.310Z,35.34
2018-09-15T14:27:39.445Z,36.69
2018-09-15T14:30:08.622Z,37.33
2018-09-15T14:32:37.789Z,38.87
2018-09-15T14:35:06.962Z,38.81
2018-09-15T14:37:36.105Z,39.27
2018-09-15T14:40:05.893Z,40.75
2018-09-15T14:42:35.033Z,40.08
2018-09-15T14:45:04.170Z,40.31
2018-09-15T14:47:33.781Z,39.94
2018-09-15T14:50:03.094Z,40.08
2018-09-15T14:52:33.025Z,35.42
2018-09-15T14:55:02.159Z,31.99
2018-09-15T14:57:31.290Z,29.94
2018-09-15T15:00:00.415Z,29.24
2018-09-15T15:02:30.386Z,26.54
2018-09-15T15:04:59.801Z,25.73
2018-09-15T15:07:29.471Z,26.59
2018-09-15T15:09:58.610Z,24.74
2018-09-15T15:12:27.729Z,26.07
2018-09-15T15:14:56.886Z,29.08
2018-09-15T15:17:26.640Z,31.79
2018-09-15T15:19:56.494Z,33.31
2018-09-15T15:22:25.893Z,35.21
2018-09-15T15:24:55.855Z,36.56
2018-09-15T15:27:25.165Z,37.14
2018-09-15T15:29:54.649Z,37.63
2018-09-15T15:32:23.785Z,37.94
2018-09-15T15:34:53.018Z,38.56
2018-09-15T15:37:22.150Z,39.79
2018-09-15T15:39:52.009Z,40.17
2018-09-15T15:42:20.820Z,39.69
2018-09-15T15:44:49.939Z,39.37
2018-09-15T15:47:19.976Z,40.87
2018-09-15T15:49:49.342Z,40.01
2018-09-15T15:52:18.717Z,40.39
2018-09-15T15:54:48.258Z,41.07
2018-09-15T15:57:17.404Z,40.75
2018-09-15T15:59:46.574Z,40.84
2018-09-15T16:02:15.736Z,41.30
2018-09-15T16:04:44.920Z,41.23
2018-09-15T16:07:14.048Z,41.11
2018-09-15T16:09:43.225Z,41.96
2018-09-15T16:12:12.346Z,41.26
2018-09-15T16:14:41.539Z,41.68
2018-09-15T16:17:10.959Z,41.70
2018-09-15T16:19:40.514Z,41.73
2018-09-15T16:22:10.004Z,41.96
2018-09-15T16:24:39.838Z,42.57
2018-09-15T16:27:09.033Z,41.84
2018-09-15T16:29:38.513Z,42.16
2018-09-15T16:32:07.658Z,42.61
2018-09-15T16:34:36.805Z,42.95
2018-09-15T16:37:06.773Z,43.98
2018-09-15T16:39:35.893Z,43.83
2018-09-15T16:42:05.008Z,44.21
2018-09-15T16:44:34.142Z,44.93
2018-09-15T16:47:03.329Z,45.01
2018-09-15T16:49:32.626Z,45.30
2018-09-15T16:52:01.762Z,45.38
2018-09-15T16:54:30.925Z,45.50
2018-09-15T16:57:00.154Z,45.63
2018-09-15T16:59:29.259Z,44.83
2018-09-15T17:01:58.394Z,45.77
2018-09-15T17:04:27.541Z,46.14
2018-09-15T17:06:56.765Z,46.51
2018-09-15T17:09:25.924Z,46.85
2018-09-15T17:11:55.093Z,47.26
2018-09-15T17:14:24.229Z,47.42
2018-09-15T17:16:53.401Z,48.04
2018-09-15T17:19:22.761Z,48.24
2018-09-15T17:21:51.938Z,49.13
2018-09-15T17:24:21.069Z,50.15
2018-09-15T17:26:50.193Z,49.32
2018-09-15T17:29:19.413Z,49.79
2018-09-15T17:31:48.564Z,51.53
2018-09-15T17:34:17.828Z,51.29
2018-09-15T17:36:47.002Z,50.35
2018-09-15T17:39:16.874Z,51.41
2018-09-15T17:41:46.030Z,51.33
2018-09-15T17:44:15.153Z,52.21
2018-09-15T17:46:44.422Z,53.86
2018-09-15T17:49:13.577Z,53.98
2018-09-15T17:51:42.701Z,54.21
2018-09-15T17:54:11.842Z,53.79
2018-09-15T17:56:40.970Z,55.83
2018-09-15T17:59:10.093Z,54.62
2018-09-15T18:01:39.254Z,55.42
2018-09-15T18:04:08.586Z,54.66
2018-09-15T18:06:37.721Z,54.43
2018-09-15T18:09:08.621Z,54.84
2018-09-15T18:11:37.761Z,55.81
2018-09-15T18:14:07.596Z,57.89
2018-09-15T18:16:36.723Z,56.59
2018-09-15T18:19:05.918Z,56.89
2018-09-15T18:21:35.153Z,59.59
2018-09-15T18:24:04.294Z,56.17
2018-09-15T18:26:34.150Z,57.03
2018-09-15T18:29:03.328Z,59.93
2018-09-15T18:31:32.611Z,60.54
2018-09-15T18:34:01.726Z,61.16
2018-09-15T18:36:30.989Z,61.30
2018-09-15T18:39:01.505Z,61.36
2018-09-15T18:41:30.473Z,61.60
2018-09-15T18:43:59.610Z,62.36
2018-09-15T18:46:29.214Z,62.56
2018-09-15T18:48:58.366Z,61.89
2018-09-15T18:51:27.514Z,63.12
2018-09-15T18:53:56.621Z,62.01
2018-09-15T18:56:26.038Z,61.89
2018-09-15T18:58:55.103Z,60.97
2018-09-15T19:01:24.323Z,64.90
2018-09-15T19:03:53.878Z,64.60
2018-09-15T19:06:23.009Z,66.35
2018-09-15T19:08:52.278Z,64.86
2018-09-15T19:11:21.505Z,67.94
2018-09-15T19:13:50.744Z,69.25
2018-09-15T19:16:19.945Z,66.82
2018-09-15T19:18:49.070Z,67.42
2018-09-15T19:21:18.214Z,67.65
2018-09-15T19:23:47.353Z,67.20
2018-09-15T19:26:16.533Z,67.01
2018-09-15T19:28:45.654Z,71.12
2018-09-15T19:31:14.862Z,71.45
2018-09-15T19:33:44.631Z,72.04
2018-09-15T19:36:13.770Z,71.46
2018-09-15T19:38:42.930Z,69.45
2018-09-15T19:41:12.502Z,70.00
2018-09-15T19:43:41.630Z,68.59
2018-09-15T19:46:10.826Z,67.96
2018-09-15T19:48:39.995Z,70.46
2018-09-15T19:51:09.137Z,71.08
2018-09-15T19:53:38.310Z,68.30
2018-09-15T19:56:07.440Z,70.76
2018-09-15T19:58:36.662Z,70.44
2018-09-15T20:01:05.976Z,69.64
2018-09-15T20:03:35.114Z,67.75
2018-09-15T20:06:05.508Z,68.71
2018-09-15T20:08:34.538Z,68.12
2018-09-15T20:11:03.657Z,68.88
2018-09-15T20:13:33.463Z,69.29
2018-09-15T20:16:01.118Z,69.14
2018-09-15T20:18:30.193Z,70.60
2018-09-15T20:20:57.933Z,73.95
2018-09-15T20:23:27.097Z,72.63
2018-09-15T20:25:56.261Z,74.29
2018-09-15T20:28:25.466Z,74.62
2018-09-15T20:30:54.618Z,74.66
2018-09-15T20:33:23.770Z,76.46
2018-09-15T20:35:54.671Z,76.14
2018-09-15T20:38:23.753Z,75.56
2018-09-15T20:40:52.945Z,77.18
2018-09-15T20:43:22.677Z,76.73
2018-09-15T20:45:52.467Z,77.95
2018-09-15T20:48:22.548Z,77.08
2018-09-15T20:50:52.537Z,76.90
2018-09-15T20:53:22.218Z,77.64
2018-09-15T20:55:51.977Z,78.73
2018-09-15T20:58:21.409Z,78.68
2018-09-15T21:00:51.666Z,78.22
2018-09-15T21:03:21.427Z,79.29
2018-09-15T21:05:51.209Z,80.93
2018-09-15T21:08:20.069Z,81.35
2018-09-15T21:10:49.230Z,81.18
2018-09-15T21:13:19.138Z,81.93
2018-09-15T21:15:48.328Z,81.52
2018-09-15T21:18:18.910Z,81.53
2018-09-15T21:20:48.501Z,82.83
2018-09-15T21:23:17.388Z,83.66
2018-09-15T21:25:46.509Z,83.45
2018-09-15T21:28:16.358Z,84.45
2018-09-15T21:30:45.509Z,85.01
2018-09-15T21:33:15.407Z,85.06
2018-09-15T21:35:44.574Z,86.97
2018-09-15T21:38:14.516Z,87.32
2018-09-15T21:40:44.401Z,87.09
2018-09-15T21:43:13.647Z,88.55
2018-09-15T21:45:43.297Z,87.90
2018-09-15T21:48:12.423Z,88.63
2018-09-15T21:50:41.584Z,88.82
2018-09-15T21:53:11.562Z,89.72
2018-09-15T21:55:40.898Z,88.61
2018-09-15T21:58:10.518Z,88.25
2018-09-15T22:00:40.519Z,88.28
2018-09-15T22:03:09.850Z,89.38
2018-09-15T22:05:39.413Z,90.21
2018-09-15T22:08:15.906Z,89.12
2018-09-15T22:10:45.397Z,89.28
2018-09-15T22:13:15.903Z,89.83
2018-09-15T22:15:45.385Z,89.24
2018-09-15T22:18:14.735Z,89.56
2018-09-15T22:20:43.534Z,89.32
2018-09-15T22:23:12.709Z,90.42
2018-09-15T22:25:41.865Z,87.66
2018-09-15T22:28:10.993Z,88.62
2018-09-15T22:30:40.101Z,90.07
2018-09-15T22:33:09.285Z,90.24
2018-09-15T22:35:38.406Z,90.54
2018-09-15T22:38:07.554Z,91.72
2018-09-15T22:40:39.040Z,92.14
2018-09-15T22:43:08.166Z,92.14
2018-09-15T22:45:36.890Z,92.59
2018-09-15T22:48:06.065Z,92.97
2018-09-15T22:50:35.242Z,93.83
2018-09-15T22:53:04.410Z,94.27
2018-09-15T22:55:33.549Z,94.16
2018-09-15T22:58:02.914Z,93.73
2018-09-15T23:00:32.054Z,94.62
2018-09-15T23:03:01.241Z,95.28
2018-09-15T23:05:30.438Z,94.61
2018-09-15T23:08:00.065Z,93.77
2018-09-15T23:10:29.194Z,95.52
2018-09-15T23:12:58.334Z,94.71
2018-09-15T23:15:27.445Z,95.42
2018-09-15T23:17:56.589Z,97.04
2018-09-15T23:20:25.783Z,96.04
2018-09-15T23:22:55.459Z,94.89
2018-09-15T23:25:24.581Z,94.26
2018-09-15T23:27:54.086Z,95.21
2018-09-15T23:30:23.298Z,96.44
2018-09-15T23:32:52.445Z,97.29
2018-09-15T23:35:21.614Z,97.57
2018-09-15T23:37:50.757Z,97.92
2018-09-15T23:40:19.955Z,98.91
2018-09-15T23:42:49.137Z,99.69
2018-09-15T23:45:18.273Z,99.39
2018-09-15T23:47:47.014Z,99.68
2018-09-15T23:50:16.137Z,100.00
2018-09-15T23:52:45.453Z,100.00
2018-09-15T23:55:14.669Z,100.00
2018-09-15T23:57:43.822Z,100.00
